createdAt,value
2023-03-06T00:01:02.962Z,9.90
2023-03-06T00:03:30.014Z,8.15
2023-03-06T00:05:58.760Z,9.27
2023-03-06T00:08:27.376Z,8.25
2023-03-06T00:10:56.283Z,8.38
2023-03-06T00:13:26.583Z,9.20
2023-03-06T00:15:53.494Z,8.27
2023-03-06T00:18:20.448Z,8.38
2023-03-06T00:20:47.290Z,8.52
2023-03-06T00:23:14.089Z,8.88
2023-03-06T00:25:45.847Z,8.63
2023-03-06T00:28:15.688Z,8.45
2023-03-06T00:30:44.126Z,8.33
2023-03-06T00:33:11.271Z,8.30
2023-03-06T00:35:42.833Z,8.88
2023-03-06T00:38:12.358Z,8.00
2023-03-06T00:40:39.298Z,8.57
2023-03-06T00:43:06.093Z,7.57
2023-03-06T00:45:33.004Z,8.68
2023-03-06T00:48:00.006Z,8.80
2023-03-06T00:50:26.973Z,10.10
2023-03-06T00:52:54.131Z,8.63
2023-03-06T00:55:21.015Z,9.25
2023-03-06T00:57:48.290Z,8.43
2023-03-06T01:00:15.658Z,9.88
2023-03-06T01:02:42.676Z,8.45
2023-03-06T01:05:13.151Z,8.90
2023-03-06T01:07:40.371Z,8.27
2023-03-06T01:10:09.298Z,8.32
2023-03-06T01:12:36.266Z,8.15
2023-03-06T01:15:05.221Z,8.30
2023-03-06T01:17:32.154Z,8.13
2023-03-06T01:19:59.041Z,9.02
2023-03-06T01:22:26.021Z,8.32
2023-03-06T01:24:52.842Z,9.20
2023-03-06T01:27:19.662Z,7.80
2023-03-06T01:29:46.465Z,7.57
2023-03-06T01:32:13.608Z,8.38
2023-03-06T01:34:40.469Z,8.40
2023-03-06T01:37:07.334Z,8.70
2023-03-06T01:39:34.147Z,7.95
2023-03-06T01:42:01.040Z,8.13
2023-03-06T01:44:27.905Z,8.25
2023-03-06T01:46:54.909Z,8.02
2023-03-06T01:49:28.447Z,7.93
2023-03-06T01:52:07.018Z,7.07
2023-03-06T01:54:47.904Z,7.63
2023-03-06T02:00:24.388Z,6.20
2023-03-06T02:03:04.200Z,6.95
2023-03-06T02:05:31.226Z,7.95
2023-03-06T02:07:58.560Z,8.30
2023-03-06T02:10:25.544Z,8.68
2023-03-06T02:12:53.141Z,7.57
2023-03-06T02:15:24.496Z,8.05
2023-03-06T02:17:52.928Z,8.27
2023-03-06T02:20:47.399Z,8.38
2023-03-06T02:23:27.775Z,7.07
2023-03-06T02:25:56.032Z,7.35
2023-03-06T02:28:24.887Z,7.88
2023-03-06T02:30:54.563Z,8.00
2023-03-06T02:33:27.453Z,7.45
2023-03-06T02:36:04.775Z,7.60
2023-03-06T02:38:47.831Z,8.25
2023-03-06T02:41:14.875Z,7.18
2023-03-06T02:43:47.404Z,8.20
2023-03-06T02:46:14.360Z,7.82
2023-03-06T02:48:41.346Z,7.63
2023-03-06T02:51:08.296Z,8.18
2023-03-06T02:53:35.167Z,7.93
2023-03-06T02:56:02.503Z,7.90
2023-03-06T02:58:29.342Z,7.60
2023-03-06T03:00:56.286Z,8.25
2023-03-06T03:03:23.120Z,8.02
2023-03-06T03:05:50.087Z,8.20
2023-03-06T03:08:17.036Z,8.68
2023-03-06T03:10:43.955Z,8.18
2023-03-06T03:13:10.808Z,8.73
2023-03-06T03:15:37.719Z,8.85
2023-03-06T03:18:04.697Z,7.63
2023-03-06T03:20:31.623Z,8.32
2023-03-06T03:22:58.470Z,8.80
2023-03-06T03:25:26.336Z,7.45
2023-03-06T03:27:53.234Z,8.45
2023-03-06T03:30:20.486Z,7.57
2023-03-06T03:32:47.493Z,8.07
2023-03-06T03:35:14.440Z,7.72
2023-03-06T03:37:41.791Z,7.22
2023-03-06T03:40:10.236Z,7.53
2023-03-06T03:42:37.318Z,8.65
2023-03-06T03:45:04.730Z,7.28
2023-03-06T03:47:31.570Z,7.85
2023-03-06T03:49:58.677Z,8.23
2023-03-06T03:52:25.632Z,8.45
2023-03-06T03:54:52.484Z,8.73
2023-03-06T03:57:19.321Z,8.48
2023-03-06T03:59:46.140Z,8.02
2023-03-06T04:02:13.094Z,7.80
2023-03-06T04:04:39.976Z,8.07
2023-03-06T04:07:07.087Z,7.75
2023-03-06T04:09:34.012Z,7.97
2023-03-06T04:12:01.176Z,7.50
2023-03-06T04:14:28.108Z,7.28
2023-03-06T04:16:54.971Z,7.43
2023-03-06T04:19:21.897Z,7.70
2023-03-06T04:21:48.953Z,7.30
2023-03-06T04:24:16.114Z,7.50
2023-03-06T04:26:42.973Z,9.52
2023-03-06T04:29:09.889Z,7.70
2023-03-06T04:31:36.866Z,8.52
2023-03-06T04:34:03.778Z,7.57
2023-03-06T04:36:34.152Z,8.00
2023-03-06T04:39:01.810Z,7.82
2023-03-06T04:41:28.964Z,8.15
2023-03-06T04:43:55.992Z,7.93
2023-03-06T04:46:22.952Z,7.28
2023-03-06T04:48:49.895Z,7.60
2023-03-06T04:51:16.981Z,8.00
2023-03-06T04:53:43.920Z,7.80
2023-03-06T04:56:10.805Z,7.63
2023-03-06T04:58:37.843Z,6.70
2023-03-06T05:01:05.042Z,7.90
2023-03-06T05:03:34.865Z,8.00
2023-03-06T05:06:02.178Z,6.82
2023-03-06T05:08:29.405Z,7.38
2023-03-06T05:11:01.777Z,6.97
2023-03-06T05:13:29.215Z,6.32
2023-03-06T05:16:02.214Z,7.07
2023-03-06T05:18:29.081Z,6.68
2023-03-06T05:20:59.519Z,6.88
2023-03-06T05:23:28.395Z,6.28
2023-03-06T05:25:55.523Z,6.80
2023-03-06T05:28:22.543Z,6.45
2023-03-06T05:30:50.103Z,6.80
2023-03-06T05:33:17.370Z,6.03
2023-03-06T05:35:49.092Z,7.28
2023-03-06T05:38:18.055Z,7.05
2023-03-06T05:40:46.116Z,6.65
2023-03-06T05:43:13.184Z,6.88
2023-03-06T05:45:41.153Z,6.03
2023-03-06T05:48:09.399Z,6.53
2023-03-06T05:50:36.362Z,6.97
2023-03-06T05:53:03.869Z,6.75
2023-03-06T05:55:31.275Z,6.93
2023-03-06T05:57:58.126Z,7.00
2023-03-06T06:00:25.475Z,6.60
2023-03-06T06:02:52.518Z,7.28
2023-03-06T06:05:19.422Z,7.35
2023-03-06T06:07:46.256Z,7.25
2023-03-06T06:10:13.151Z,7.35
2023-03-06T06:12:40.032Z,6.68
2023-03-06T06:15:07.717Z,6.43
2023-03-06T06:17:34.552Z,7.07
2023-03-06T06:20:01.678Z,6.90
2023-03-06T06:22:28.710Z,6.40
2023-03-06T06:24:55.654Z,7.05
2023-03-06T06:27:22.492Z,7.10
2023-03-06T06:29:52.447Z,6.57
2023-03-06T06:32:19.687Z,6.63
2023-03-06T06:34:46.746Z,7.45
2023-03-06T06:37:13.775Z,7.30
2023-03-06T06:39:41.208Z,7.50
2023-03-06T06:42:28.585Z,7.53
2023-03-06T06:44:56.129Z,7.60
2023-03-06T06:47:25.086Z,8.02
2023-03-06T06:49:55.364Z,7.70
2023-03-06T06:52:24.824Z,8.43
2023-03-06T06:54:53.096Z,7.15
2023-03-06T06:57:20.058Z,7.72
2023-03-06T06:59:46.890Z,7.35
2023-03-06T07:02:15.956Z,8.30
2023-03-06T07:05:01.979Z,7.45
2023-03-06T07:07:33.008Z,7.45
2023-03-06T07:09:59.819Z,6.95
2023-03-06T07:12:26.686Z,7.18
2023-03-06T07:14:53.516Z,7.85
2023-03-06T07:17:20.339Z,8.07
2023-03-06T07:19:48.136Z,8.23
2023-03-06T07:22:15.134Z,7.60
2023-03-06T07:24:42.048Z,8.25
2023-03-06T07:27:08.949Z,8.07
2023-03-06T07:29:35.940Z,7.88
2023-03-06T07:32:03.116Z,8.13
2023-03-06T07:34:30.101Z,7.82
2023-03-06T07:36:56.950Z,7.32
2023-03-06T07:39:23.850Z,7.95
2023-03-06T07:41:52.167Z,8.50
2023-03-06T07:44:19.118Z,7.95
2023-03-06T07:46:46.313Z,9.30
2023-03-06T07:49:13.346Z,7.30
2023-03-06T07:51:40.431Z,8.02
2023-03-06T07:54:07.287Z,8.45
2023-03-06T07:56:35.102Z,8.02
2023-03-06T07:59:02.745Z,7.90
2023-03-06T08:01:29.629Z,9.57
2023-03-06T08:03:56.687Z,8.77
2023-03-06T08:06:26.952Z,7.88
2023-03-06T08:08:55.672Z,7.43
2023-03-06T08:11:26.524Z,7.10
2023-03-06T08:16:24.721Z,6.72
2023-03-06T08:18:52.070Z,7.07
2023-03-06T08:21:26.993Z,7.90
2023-03-06T08:23:54.215Z,7.80
2023-03-06T08:26:25.537Z,8.38
2023-03-06T08:28:54.867Z,7.65
2023-03-06T08:31:34.259Z,7.50
2023-03-06T08:34:05.633Z,7.35
2023-03-06T08:36:32.969Z,8.57
2023-03-06T08:39:00.403Z,7.78
2023-03-06T08:41:27.692Z,7.53
2023-03-06T08:43:54.760Z,8.52
2023-03-06T08:46:25.164Z,8.15
2023-03-06T08:48:52.429Z,7.45
2023-03-06T08:51:21.214Z,8.40
2023-03-06T08:53:48.421Z,8.35
2023-03-06T08:56:20.674Z,7.70
2023-03-06T08:58:48.508Z,8.00
2023-03-06T09:01:28.813Z,8.38
2023-03-06T09:03:59.458Z,8.70
2023-03-06T09:06:29.444Z,8.07
2023-03-06T09:08:56.962Z,8.15
2023-03-06T09:11:26.021Z,8.13
2023-03-06T09:13:54.313Z,8.40
2023-03-06T09:16:21.845Z,7.82
2023-03-06T09:18:50.901Z,7.85
2023-03-06T09:21:17.739Z,8.68
2023-03-06T09:23:45.112Z,8.15
2023-03-06T09:26:12.722Z,8.00
2023-03-06T09:28:40.656Z,8.02
2023-03-06T09:31:20.019Z,7.85
2023-03-06T09:33:48.548Z,7.97
2023-03-06T09:36:22.123Z,8.43
2023-03-06T09:38:50.097Z,8.55
2023-03-06T09:41:26.263Z,8.40
2023-03-06T09:44:04.955Z,9.98
2023-03-06T09:46:54.809Z,9.07
2023-03-06T09:49:46.141Z,8.10
2023-03-06T09:52:36.266Z,7.50
2023-03-06T09:55:28.133Z,8.30
2023-03-06T09:58:02.438Z,7.45
2023-03-06T10:00:45.563Z,7.85
2023-03-06T10:03:24.727Z,7.82
2023-03-06T10:06:12.579Z,7.55
2023-03-06T10:09:05.521Z,7.65
2023-03-06T10:12:06.636Z,7.47
2023-03-06T10:14:45.904Z,7.25
2023-03-06T10:17:20.525Z,7.40
2023-03-06T10:19:47.786Z,8.07
2023-03-06T10:22:37.171Z,6.20
2023-03-06T10:25:11.652Z,7.03
2023-03-06T10:28:26.380Z,6.88
2023-03-06T10:31:19.897Z,6.82
2023-03-06T10:34:14.425Z,6.80
2023-03-06T10:36:41.281Z,7.07
2023-03-06T10:39:20.031Z,7.72
2023-03-06T10:41:48.911Z,7.78
2023-03-06T10:44:15.632Z,6.88
2023-03-06T10:46:49.622Z,7.45
2023-03-06T10:49:24.901Z,7.75
2023-03-06T10:52:14.243Z,6.40
2023-03-06T10:54:44.895Z,5.90
2023-03-06T10:57:27.381Z,7.68
2023-03-06T11:00:01.620Z,7.97
2023-03-06T11:02:41.123Z,6.97
2023-03-06T11:05:21.032Z,7.22
2023-03-06T11:08:00.422Z,6.57
2023-03-06T11:10:36.244Z,5.80
2023-03-06T11:13:25.784Z,7.00
2023-03-06T11:16:02.283Z,6.93
2023-03-06T11:18:40.349Z,7.57
2023-03-06T11:21:33.257Z,7.68
2023-03-06T11:24:20.119Z,7.43
2023-03-06T11:27:02.065Z,8.10
2023-03-06T11:29:43.862Z,7.15
2023-03-06T11:32:45.888Z,6.50
2023-03-06T11:35:24.277Z,7.32
2023-03-06T11:38:27.298Z,7.47
2023-03-06T11:41:03.281Z,7.25
2023-03-06T11:44:09.806Z,6.93
2023-03-06T11:47:05.549Z,7.65
2023-03-06T11:50:36.914Z,8.18
2023-03-06T11:53:10.604Z,7.47
2023-03-06T11:55:49.789Z,7.65
2023-03-06T11:59:03.153Z,8.07
2023-03-06T12:01:38.096Z,9.63
2023-03-06T12:04:29.437Z,7.57
2023-03-06T12:07:22.430Z,8.15
2023-03-06T12:10:17.495Z,8.30
2023-03-06T12:13:27.788Z,7.72
2023-03-06T12:16:51.713Z,8.50
2023-03-06T12:19:49.909Z,6.80
2023-03-06T12:22:57.600Z,7.20
2023-03-06T12:25:41.891Z,7.05
2023-03-06T12:28:26.748Z,6.53
2023-03-06T12:31:32.412Z,8.00
2023-03-06T12:34:15.224Z,7.88
2023-03-06T12:36:53.872Z,6.32
2023-03-06T12:39:32.663Z,7.93
2023-03-06T12:42:31.161Z,7.22
2023-03-06T12:45:10.851Z,7.05
2023-03-06T12:47:44.704Z,7.35
2023-03-06T12:50:39.907Z,7.85
2023-03-06T12:53:23.533Z,7.60
2023-03-06T12:55:52.080Z,7.57
2023-03-06T12:58:30.846Z,7.75
2023-03-06T13:01:13.521Z,8.73
2023-03-06T13:04:26.805Z,8.75
2023-03-06T13:07:07.784Z,7.22
2023-03-06T13:10:08.117Z,8.57
2023-03-06T13:13:02.565Z,8.05
2023-03-06T13:16:07.682Z,7.85
2023-03-06T13:18:34.637Z,7.88
2023-03-06T13:21:04.362Z,7.80
2023-03-06T13:23:34.479Z,8.38
2023-03-06T13:26:03.784Z,8.27
2023-03-06T13:28:47.740Z,7.60
2023-03-06T13:31:51.147Z,8.10
2023-03-06T13:34:42.473Z,8.38
2023-03-06T13:37:23.178Z,8.18
2023-03-06T13:39:56.965Z,7.95
2023-03-06T13:42:36.154Z,7.65
2023-03-06T13:45:17.061Z,8.27
2023-03-06T13:50:46.542Z,6.60
2023-03-06T13:53:31.719Z,7.63
2023-03-06T13:56:18.414Z,7.47
2023-03-06T13:59:10.344Z,7.10
2023-03-06T14:02:26.027Z,8.15
2023-03-06T14:05:01.722Z,7.57
2023-03-06T14:07:43.170Z,8.55
2023-03-06T14:10:24.697Z,7.07
2023-03-06T14:12:51.587Z,7.53
2023-03-06T14:15:24.564Z,7.72
2023-03-06T14:18:18.100Z,6.30
2023-03-06T14:20:54.436Z,8.07
2023-03-06T14:23:42.152Z,7.60
2023-03-06T14:26:17.715Z,7.95
2023-03-06T14:29:00.696Z,7.88
2023-03-06T14:31:43.088Z,7.47
2023-03-06T14:34:39.941Z,8.02
2023-03-06T14:37:20.705Z,7.30
2023-03-06T14:39:47.818Z,6.65
2023-03-06T14:42:25.187Z,7.53
2023-03-06T14:45:13.407Z,7.32
2023-03-06T14:47:40.235Z,7.78
2023-03-06T14:50:33.961Z,7.53
2023-03-06T14:53:16.205Z,7.43
2023-03-06T14:55:55.999Z,7.35
2023-03-06T14:58:47.022Z,8.32
2023-03-06T15:01:15.333Z,7.65
2023-03-06T15:03:51.602Z,7.78
2023-03-06T15:06:23.941Z,7.05
2023-03-06T15:09:24.390Z,6.97
2023-03-06T15:12:31.379Z,4.68
2023-03-06T15:15:01.668Z,5.97
2023-03-06T15:17:38.300Z,7.10
2023-03-06T15:20:10.319Z,7.63
2023-03-06T15:22:41.553Z,7.63
2023-03-06T15:25:30.679Z,7.65
2023-03-06T15:28:01.324Z,7.57
2023-03-06T15:30:37.573Z,7.60
2023-03-06T15:33:19.288Z,7.25
2023-03-06T15:35:57.896Z,6.80
2023-03-06T15:38:46.500Z,7.53
2023-03-06T15:41:38.651Z,7.22
2023-03-06T15:44:14.646Z,7.22
2023-03-06T15:46:42.159Z,8.38
2023-03-06T15:49:18.417Z,6.65
2023-03-06T15:51:45.248Z,8.05
2023-03-06T15:54:12.941Z,7.63
2023-03-06T15:56:44.351Z,7.18
2023-03-06T15:59:27.875Z,7.65
2023-03-06T16:01:55.033Z,7.20
2023-03-06T16:04:21.957Z,6.68
2023-03-06T16:06:48.833Z,7.10
2023-03-06T16:09:15.911Z,7.93
2023-03-06T16:11:44.914Z,6.88
2023-03-06T16:14:21.267Z,7.15
2023-03-06T16:16:50.094Z,7.22
2023-03-06T16:19:27.297Z,7.40
2023-03-06T16:21:56.594Z,6.55
2023-03-06T16:24:24.783Z,7.18
2023-03-06T16:26:58.857Z,6.57
2023-03-06T16:29:27.640Z,6.25
2023-03-06T16:31:56.624Z,6.70
2023-03-06T16:34:24.437Z,6.72
2023-03-06T16:36:51.727Z,6.75
2023-03-06T16:39:22.695Z,7.20
2023-03-06T16:41:50.469Z,6.72
2023-03-06T16:44:17.448Z,6.50
2023-03-06T16:46:47.900Z,6.47
2023-03-06T16:49:23.764Z,7.18
2023-03-06T16:51:52.970Z,6.72
2023-03-06T16:54:20.250Z,6.07
2023-03-06T16:56:47.080Z,6.78
2023-03-06T16:59:14.001Z,6.43
2023-03-06T17:01:45.206Z,6.57
2023-03-06T17:04:12.225Z,6.65
2023-03-06T17:06:40.172Z,7.88
2023-03-06T17:09:07.284Z,7.63
2023-03-06T17:11:38.647Z,7.85
2023-03-06T17:14:06.941Z,6.88
2023-03-06T17:16:34.529Z,7.07
2023-03-06T17:19:02.505Z,6.13
2023-03-06T17:21:30.338Z,6.70
2023-03-06T17:23:57.454Z,7.28
2023-03-06T17:26:24.609Z,6.22
2023-03-06T17:28:51.569Z,6.40
2023-03-06T17:31:25.517Z,6.75
2023-03-06T17:33:57.142Z,6.90
2023-03-06T17:36:24.066Z,6.72
2023-03-06T17:38:55.029Z,5.93
2023-03-06T17:41:24.503Z,6.60
2023-03-06T17:43:58.739Z,6.72
2023-03-06T17:46:26.452Z,6.55
2023-03-06T17:48:54.390Z,6.13
2023-03-06T17:51:21.291Z,6.63
2023-03-06T17:53:49.237Z,6.57
2023-03-06T17:56:16.182Z,6.20
2023-03-06T17:58:43.119Z,8.38
2023-03-06T18:01:17.742Z,8.07
2023-03-06T18:03:47.591Z,8.25
2023-03-06T18:06:17.408Z,8.20
2023-03-06T18:08:52.624Z,7.65
2023-03-06T18:11:20.365Z,9.02
2023-03-06T18:13:47.494Z,8.10
2023-03-06T18:16:18.786Z,8.30
2023-03-06T18:18:46.241Z,8.02
2023-03-06T18:21:16.431Z,7.18
2023-03-06T18:23:43.358Z,7.15
2023-03-06T18:26:16.021Z,7.30
2023-03-06T18:28:47.964Z,7.05
2023-03-06T18:31:34.706Z,6.82
2023-03-06T18:34:08.070Z,7.47
2023-03-06T18:36:35.482Z,6.53
2023-03-06T18:39:03.879Z,7.38
2023-03-06T18:41:32.170Z,7.35
2023-03-06T18:44:01.680Z,7.82
2023-03-06T18:46:36.520Z,8.60
2023-03-06T18:49:04.527Z,7.88
2023-03-06T18:51:31.870Z,7.80
2023-03-06T18:54:00.935Z,7.53
2023-03-06T18:56:28.374Z,7.07
2023-03-06T18:58:55.388Z,6.57
2023-03-06T19:01:23.976Z,8.52
2023-03-06T19:03:51.162Z,7.30
2023-03-06T19:06:18.673Z,7.07
2023-03-06T19:08:45.755Z,6.93
2023-03-06T19:11:16.081Z,6.75
2023-03-06T19:13:43.998Z,6.18
2023-03-06T19:16:24.205Z,5.82
2023-03-06T19:18:51.496Z,5.18
2023-03-06T19:21:21.922Z,5.88
2023-03-06T19:23:49.616Z,6.50
2023-03-06T19:26:20.930Z,6.25
2023-03-06T19:28:48.922Z,5.88
2023-03-06T19:31:20.433Z,6.30
2023-03-06T19:33:49.691Z,6.20
2023-03-06T19:36:18.616Z,7.75
2023-03-06T19:38:52.438Z,7.63
2023-03-06T19:41:19.458Z,8.10
2023-03-06T19:43:55.538Z,6.07
2023-03-06T19:46:23.277Z,5.70
2023-03-06T19:48:59.534Z,5.85
2023-03-06T19:51:27.850Z,5.82
2023-03-06T19:53:56.281Z,7.10
2023-03-06T19:56:26.829Z,5.80
2023-03-06T19:58:53.963Z,5.18
2023-03-06T20:01:24.951Z,5.90
2023-03-06T20:03:59.179Z,4.88
2023-03-06T20:06:30.283Z,5.38
2023-03-06T20:08:57.290Z,5.28
2023-03-06T20:11:31.966Z,5.85
2023-03-06T20:14:02.459Z,7.32
2023-03-06T20:16:30.527Z,6.60
2023-03-06T20:19:00.316Z,6.50
2023-03-06T20:21:30.992Z,4.75
2023-03-06T20:23:58.297Z,6.00
2023-03-06T20:26:28.824Z,6.25
2023-03-06T20:28:56.775Z,7.35
2023-03-06T20:31:27.020Z,6.40
2023-03-06T20:33:57.568Z,6.30
2023-03-06T20:36:32.600Z,6.57
2023-03-06T20:39:06.770Z,5.28
2023-03-06T20:41:33.884Z,5.80
2023-03-06T20:44:03.896Z,6.63
2023-03-06T20:46:31.606Z,5.63
2023-03-06T20:48:59.531Z,5.88
2023-03-06T20:51:39.161Z,6.03
2023-03-06T20:54:09.796Z,6.82
2023-03-06T20:56:39.592Z,6.32
2023-03-06T20:59:10.678Z,6.55
2023-03-06T21:01:41.899Z,5.97
2023-03-06T21:04:13.583Z,7.40
2023-03-06T21:06:45.231Z,6.47
2023-03-06T21:09:14.569Z,6.28
2023-03-06T21:11:41.433Z,6.43
2023-03-06T21:14:08.535Z,5.78
2023-03-06T21:16:36.364Z,5.40
2023-03-06T21:19:03.587Z,6.78
2023-03-06T21:21:34.807Z,5.95
2023-03-06T21:24:02.442Z,6.25
2023-03-06T21:26:33.740Z,6.35
2023-03-06T21:29:01.951Z,6.82
2023-03-06T21:31:30.724Z,6.15
2023-03-06T21:33:58.938Z,6.00
2023-03-06T21:36:26.573Z,5.90
2023-03-06T21:38:54.991Z,6.35
2023-03-06T21:41:25.901Z,5.88
2023-03-06T21:43:58.432Z,6.60
2023-03-06T21:46:26.695Z,6.10
2023-03-06T21:48:54.317Z,6.45
2023-03-06T21:51:23.662Z,6.75
2023-03-06T21:53:52.040Z,7.15
2023-03-06T21:56:22.296Z,6.90
2023-03-06T21:58:49.339Z,6.43
2023-03-06T22:01:21.722Z,6.03
2023-03-06T22:03:48.999Z,7.03
2023-03-06T22:06:23.556Z,6.43
2023-03-06T22:08:50.740Z,6.68
2023-03-06T22:11:23.661Z,6.65
2023-03-06T22:13:53.084Z,6.22
2023-03-06T22:16:20.886Z,6.45
2023-03-06T22:18:50.492Z,6.40
2023-03-06T22:21:21.100Z,7.03
2023-03-06T22:23:57.677Z,7.10
2023-03-06T22:26:26.217Z,7.88
2023-03-06T22:28:53.404Z,6.93
2023-03-06T22:31:24.125Z,6.78
2023-03-06T22:36:23.560Z,6.00
2023-03-06T22:38:55.675Z,6.53
2023-03-06T22:41:22.951Z,6.95
2023-03-06T22:43:49.886Z,7.38
2023-03-06T22:46:18.352Z,6.88
2023-03-06T22:48:45.770Z,6.57
2023-03-06T22:51:19.834Z,7.25
2023-03-06T22:53:47.747Z,6.80
2023-03-06T22:56:20.738Z,6.07
2023-03-06T22:58:48.350Z,6.05
2023-03-06T23:01:21.641Z,6.75
2023-03-06T23:03:55.700Z,6.10
2023-03-06T23:06:30.104Z,6.07
2023-03-06T23:09:21.475Z,5.38
2023-03-06T23:11:49.472Z,5.57
2023-03-06T23:14:17.918Z,6.25
2023-03-06T23:16:45.796Z,6.07
2023-03-06T23:19:12.775Z,6.32
2023-03-06T23:21:39.653Z,6.50
2023-03-06T23:24:07.446Z,6.32
2023-03-06T23:26:34.985Z,6.80
2023-03-06T23:29:02.008Z,5.57
2023-03-06T23:31:31.029Z,6.43
2023-03-06T23:34:01.649Z,6.57
2023-03-06T23:36:30.212Z,6.35
2023-03-06T23:38:57.658Z,6.03
2023-03-06T23:41:25.068Z,7.18
2023-03-06T23:43:54.661Z,7.13
2023-03-06T23:46:22.015Z,6.70
2023-03-06T23:48:48.868Z,7.00
2023-03-06T23:51:22.292Z,6.47
2023-03-06T23:53:56.376Z,6.85
2023-03-06T23:56:25.940Z,6.68
2023-03-06T23:58:52.853Z,6.03
